Time;durP1;ratioP1;P1;durP2;ratioP2;P2;SDS_P1;SDS_P2;PMS_P1;PMS_P2;Temp;Humidity;BMP_temperature;BMP_pressure;BME280_temperature;BME280_humidity;BME280_pressure;Samples;Min_cycle;Max_cycle;Signal;HPM_P1;HPM_P2
2023/10/20 00:00:06;;;;;;;7.93;4.50;;;8.60;99.90;;;;;;5019504;28;20095;-74
2023/10/20 00:02:35;;;;;;;6.90;4.65;;;8.60;99.90;;;;;;5020310;28;20484;-75
2023/10/20 00:05:06;;;;;;;8.50;5.45;;;8.60;99.90;;;;;;5021069;28;20049;-75
2023/10/20 00:07:32;;;;;;;9.32;4.80;;;8.50;99.90;;;;;;5020920;28;20087;-75
2023/10/20 00:09:59;;;;;;;10.88;5.70;;;8.50;99.90;;;;;;5020543;28;20042;-76
2023/10/20 00:12:25;;;;;;;7.55;4.95;;;8.50;99.90;;;;;;5020311;28;20048;-74
2023/10/20 00:14:51;;;;;;;11.85;5.72;;;8.50;99.90;;;;;;5020264;28;20049;-75
2023/10/20 00:17:16;;;;;;;6.63;5.22;;;8.60;99.90;;;;;;5021911;28;20086;-74
2023/10/20 00:19:42;;;;;;;10.80;6.75;;;8.50;99.90;;;;;;5023451;28;20128;-75
2023/10/20 00:22:07;;;;;;;6.15;4.15;;;8.50;99.90;;;;;;5025179;28;20041;-75
2023/10/20 00:24:33;;;;;;;8.18;6.00;;;8.50;99.90;;;;;;5007131;28;20061;-75
2023/10/20 00:26:59;;;;;;;6.32;4.90;;;8.60;99.90;;;;;;5025046;28;20038;-75
2023/10/20 00:29:25;;;;;;;10.75;6.05;;;8.50;99.90;;;;;;5023328;28;20130;-74
2023/10/20 00:31:50;;;;;;;8.05;4.57;;;8.50;99.90;;;;;;5023705;28;20384;-74
2023/10/20 00:34:16;;;;;;;9.85;5.18;;;8.50;99.90;;;;;;5024184;28;20060;-75
2023/10/20 00:36:41;;;;;;;6.13;4.85;;;8.50;99.90;;;;;;5023888;28;20053;-75
2023/10/20 00:39:07;;;;;;;6.32;4.72;;;8.50;99.90;;;;;;5023367;28;20120;-75
2023/10/20 00:41:35;;;;;;;8.52;3.70;;;8.50;99.90;;;;;;5023030;28;20488;-75
2023/10/20 00:44:01;;;;;;;10.68;5.22;;;8.50;99.90;;;;;;5022995;28;20062;-74
2023/10/20 00:46:27;;;;;;;6.15;4.40;;;8.50;99.90;;;;;;5021777;28;20049;-75
2023/10/20 00:48:53;;;;;;;9.63;4.32;;;8.50;99.90;;;;;;5024749;28;20510;-75
2023/10/20 00:51:19;;;;;;;5.25;3.90;;;8.40;99.90;;;;;;5023338;28;20038;-75
2023/10/20 00:53:45;;;;;;;8.68;5.18;;;8.40;99.90;;;;;;5024426;28;20042;-75
2023/10/20 00:56:11;;;;;;;7.60;4.88;;;8.40;99.90;;;;;;5023533;28;20042;-75
2023/10/20 00:58:37;;;;;;;6.88;3.95;;;8.40;99.90;;;;;;5023212;28;20052;-75
2023/10/20 01:01:06;;;;;;;6.72;3.75;;;8.40;99.90;;;;;;5023292;28;20784;-75
2023/10/20 01:03:33;;;;;;;7.50;4.75;;;8.40;99.90;;;;;;5023449;28;20472;-75
2023/10/20 01:06:03;;;;;;;11.13;5.90;;;8.40;99.90;;;;;;5022449;28;20057;-75
2023/10/20 01:08:28;;;;;;;6.97;4.72;;;8.40;99.90;;;;;;5023017;28;20057;-75
2023/10/20 01:10:54;;;;;;;8.35;3.92;;;8.40;99.90;;;;;;5022337;28;20045;-75
2023/10/20 01:13:21;;;;;;;6.78;4.65;;;8.40;99.90;;;;;;5023896;28;20085;-75
2023/10/20 01:15:47;;;;;;;8.40;4.55;;;8.40;99.90;;;;;;5021797;28;20041;-75
2023/10/20 01:18:13;;;;;;;5.85;3.80;;;8.40;99.90;;;;;;5021809;28;20455;-75
2023/10/20 01:20:39;;;;;;;9.85;4.40;;;8.40;99.90;;;;;;5024540;28;20316;-75
2023/10/20 01:23:04;;;;;;;6.93;4.78;;;8.40;99.90;;;;;;5022801;28;20087;-75
2023/10/20 01:25:31;;;;;;;6.40;4.63;;;8.30;99.90;;;;;;5022065;28;20045;-75
2023/10/20 01:27:56;;;;;;;6.78;4.25;;;8.30;99.90;;;;;;5020896;28;20049;-74
2023/10/20 01:30:22;;;;;;;9.95;5.03;;;8.30;99.90;;;;;;5020846;28;20558;-75
2023/10/20 01:32:48;;;;;;;8.38;4.75;;;8.30;99.90;;;;;;5023962;28;20087;-75
2023/10/20 01:35:14;;;;;;;9.27;5.82;;;8.30;99.90;;;;;;5022989;28;20125;-75
2023/10/20 01:37:40;;;;;;;9.43;4.60;;;8.30;99.90;;;;;;5023442;28;20048;-77
2023/10/20 01:40:09;;;;;;;7.05;3.53;;;8.30;99.90;;;;;;5022614;28;20060;-74
2023/10/20 01:42:35;;;;;;;7.43;5.10;;;8.30;99.90;;;;;;5021868;28;20045;-74
2023/10/20 01:45:01;;;;;;;8.65;4.90;;;8.30;99.90;;;;;;5023328;28;20057;-75
2023/10/20 01:47:27;;;;;;;8.50;5.10;;;8.30;99.90;;;;;;5027929;28;20025;-75
2023/10/20 01:49:53;;;;;;;9.40;5.57;;;8.30;99.90;;;;;;5043364;28;20048;-75
2023/10/20 01:52:18;;;;;;;6.13;4.72;;;8.30;99.90;;;;;;5042937;28;20041;-75
2023/10/20 01:54:45;;;;;;;6.28;4.03;;;8.30;99.90;;;;;;5033617;28;20049;-75
2023/10/20 01:57:11;;;;;;;5.70;5.00;;;8.30;99.90;;;;;;5022801;28;20395;-75
2023/10/20 01:59:36;;;;;;;11.77;5.85;;;8.30;99.90;;;;;;5023315;28;20052;-75
2023/10/20 02:02:02;;;;;;;8.52;3.75;;;8.30;99.90;;;;;;5021994;28;20049;-75
2023/10/20 02:04:27;;;;;;;8.63;3.65;;;8.30;99.90;;;;;;5022753;28;20037;-75
2023/10/20 02:06:53;;;;;;;6.95;4.18;;;8.30;99.90;;;;;;5022456;28;20073;-75
2023/10/20 02:09:19;;;;;;;5.20;4.57;;;8.30;99.90;;;;;;5022528;28;20045;-75
2023/10/20 02:11:44;;;;;;;10.30;6.00;;;8.30;99.90;;;;;;5023166;28;20049;-75
2023/10/20 02:14:10;;;;;;;7.50;4.80;;;8.30;99.90;;;;;;5021497;28;20054;-76
2023/10/20 02:16:36;;;;;;;7.68;4.13;;;8.20;99.90;;;;;;5022018;28;20049;-74
2023/10/20 02:19:03;;;;;;;6.85;4.78;;;8.30;99.90;;;;;;5022860;28;20041;-74
2023/10/20 02:21:29;;;;;;;12.35;5.25;;;8.30;99.90;;;;;;5022036;28;20046;-74
2023/10/20 02:23:54;;;;;;;8.88;5.50;;;8.20;99.90;;;;;;5022256;28;20037;-75
2023/10/20 02:26:21;;;;;;;11.05;5.43;;;8.20;99.90;;;;;;5021170;28;20120;-75
2023/10/20 02:28:47;;;;;;;9.68;4.57;;;8.20;99.90;;;;;;5022879;28;20052;-75
2023/10/20 02:31:17;;;;;;;8.18;4.00;;;8.20;99.90;;;;;;5021262;28;20049;-75
2023/10/20 02:33:43;;;;;;;10.05;6.25;;;8.20;99.90;;;;;;5022669;28;20045;-75
2023/10/20 02:36:09;;;;;;;9.27;5.25;;;8.20;99.90;;;;;;5022433;28;20037;-75
2023/10/20 02:38:35;;;;;;;9.88;6.13;;;8.20;99.90;;;;;;5020890;28;20112;-76
2023/10/20 02:41:03;;;;;;;12.25;5.30;;;8.20;99.90;;;;;;5021148;28;20049;-75
2023/10/20 02:43:29;;;;;;;9.15;5.55;;;8.20;99.90;;;;;;5021187;28;20033;-75
2023/10/20 02:45:55;;;;;;;8.23;4.50;;;8.20;99.90;;;;;;5021618;28;20042;-75
2023/10/20 02:48:22;;;;;;;9.57;6.38;;;8.20;99.90;;;;;;5020557;28;20554;-75
2023/10/20 02:50:48;;;;;;;11.13;4.97;;;8.20;99.90;;;;;;5022261;28;20144;-75
2023/10/20 02:53:14;;;;;;;9.18;5.32;;;8.20;99.90;;;;;;5021457;28;20048;-75
2023/10/20 02:55:41;;;;;;;7.80;5.38;;;8.20;99.90;;;;;;5022080;28;20161;-76
2023/10/20 02:58:08;;;;;;;11.65;6.40;;;8.20;99.90;;;;;;5023046;28;20770;-75
2023/10/20 03:00:33;;;;;;;10.70;6.57;;;8.20;99.90;;;;;;5020923;28;20077;-75
2023/10/20 03:02:59;;;;;;;9.93;5.82;;;8.20;99.90;;;;;;5020822;28;20464;-75
2023/10/20 03:05:29;;;;;;;5.22;4.50;;;8.20;99.90;;;;;;5021525;28;20107;-75
2023/10/20 03:07:57;;;;;;;7.90;5.20;;;8.20;99.90;;;;;;5020092;28;20037;-74
2023/10/20 03:10:23;;;;;;;5.72;5.05;;;8.20;99.90;;;;;;5019884;28;20057;-74
2023/10/20 03:12:48;;;;;;;8.10;5.25;;;8.20;99.90;;;;;;5021942;28;20041;-75
2023/10/20 03:15:15;;;;;;;12.10;4.47;;;8.20;99.90;;;;;;5021137;28;20041;-75
2023/10/20 03:17:41;;;;;;;13.10;5.45;;;8.20;99.90;;;;;;5022336;28;20085;-75
2023/10/20 03:20:08;;;;;;;9.25;5.00;;;8.20;99.90;;;;;;5021885;28;20523;-74
2023/10/20 03:22:35;;;;;;;12.35;6.53;;;8.20;99.90;;;;;;5021947;28;20046;-75
2023/10/20 03:25:03;;;;;;;10.43;4.70;;;8.20;99.90;;;;;;5003776;28;20053;-75
2023/10/20 03:27:30;;;;;;;10.52;5.85;;;8.20;99.90;;;;;;5021266;28;20051;-76
2023/10/20 03:29:55;;;;;;;12.73;5.25;;;8.20;99.90;;;;;;5021066;28;20041;-75
2023/10/20 03:32:21;;;;;;;7.70;4.38;;;8.20;99.90;;;;;;5021130;28;20041;-75
2023/10/20 03:34:47;;;;;;;8.30;4.57;;;8.20;99.90;;;;;;5022127;28;20527;-75
2023/10/20 03:37:13;;;;;;;7.85;5.53;;;8.20;99.90;;;;;;5020013;28;20103;-74
2023/10/20 03:39:39;;;;;;;11.82;4.93;;;8.20;99.90;;;;;;5021528;28;20041;-76
2023/10/20 03:42:07;;;;;;;8.55;5.10;;;8.20;99.90;;;;;;5004323;28;20049;-76
2023/10/20 03:44:33;;;;;;;10.52;5.15;;;8.20;99.90;;;;;;5021452;28;20049;-75
2023/10/20 03:46:59;;;;;;;12.10;6.18;;;8.20;99.90;;;;;;5020867;28;20034;-75
2023/10/20 03:49:26;;;;;;;9.80;5.43;;;8.20;99.90;;;;;;5004356;28;20068;-75
2023/10/20 03:51:51;;;;;;;9.45;5.43;;;8.10;99.90;;;;;;5023610;28;20041;-75
2023/10/20 03:54:24;;;;;;;15.27;5.70;;;8.20;99.90;;;;;;5025272;28;20053;-75
2023/10/20 03:56:50;;;;;;;13.65;6.93;;;8.10;99.90;;;;;;5025402;28;20052;-75
2023/10/20 03:59:16;;;;;;;6.82;4.93;;;8.10;99.90;;;;;;5025143;28;20046;-75
2023/10/20 04:01:42;;;;;;;9.65;5.03;;;8.10;99.90;;;;;;5024745;28;20041;-75
2023/10/20 04:04:09;;;;;;;11.25;6.70;;;8.10;99.90;;;;;;5025605;28;20502;-75
2023/10/20 04:06:38;;;;;;;9.68;5.47;;;8.10;99.90;;;;;;5025064;28;20060;-75
2023/10/20 04:09:08;;;;;;;10.52;5.85;;;8.10;99.90;;;;;;5023854;28;20095;-75
2023/10/20 04:11:35;;;;;;;9.35;5.22;;;8.10;99.90;;;;;;5024056;28;20049;-75
2023/10/20 04:14:10;;;;;;;10.18;5.22;;;8.10;99.90;;;;;;5024750;28;20120;-75
2023/10/20 04:16:39;;;;;;;9.82;5.82;;;8.10;99.90;;;;;;5023478;28;20038;-75
2023/10/20 04:19:14;;;;;;;11.70;5.72;;;8.00;99.90;;;;;;5007512;28;20051;-74
2023/10/20 04:21:43;;;;;;;10.85;4.95;;;8.10;99.90;;;;;;5024307;28;20222;-75
2023/10/20 04:24:12;;;;;;;8.73;4.90;;;8.10;99.90;;;;;;5023790;28;20049;-75
2023/10/20 04:26:41;;;;;;;9.32;5.63;;;8.00;99.90;;;;;;5023989;28;20579;-75
2023/10/20 04:53:51;;;;;;;8.98;4.85;;;8.00;99.90;;;;;;5003400;28;20061;-75
2023/10/20 04:56:35;;;;;;;7.88;5.43;;;8.00;99.90;;;;;;5017133;28;20135;-75
2023/10/20 04:59:10;;;;;;;10.48;5.53;;;8.00;99.90;;;;;;5024124;28;20095;-75
2023/10/20 05:01:49;;;;;;;5.38;3.78;;;8.00;99.90;;;;;;5006664;28;20053;-75
2023/10/20 05:04:23;;;;;;;7.65;4.20;;;8.00;99.90;;;;;;5023096;28;20090;-75
2023/10/20 05:06:58;;;;;;;6.40;4.47;;;8.00;99.90;;;;;;5005653;28;20049;-75
2023/10/20 05:09:25;;;;;;;2.72;2.53;;;8.00;99.90;;;;;;5019134;28;20117;-74
2023/10/20 05:11:52;;;;;;;5.45;4.53;;;8.00;99.90;;;;;;5021422;28;20037;-75
2023/10/20 05:14:18;;;;;;;7.63;3.95;;;8.00;99.90;;;;;;5012693;28;20069;-75
2023/10/20 05:16:44;;;;;;;7.38;4.22;;;8.00;99.90;;;;;;5010583;28;20037;-75
2023/10/20 05:19:10;;;;;;;4.57;2.40;;;8.00;99.90;;;;;;5020265;28;20072;-78
2023/10/20 05:21:38;;;;;;;8.40;4.05;;;8.00;99.90;;;;;;5018518;28;20046;-77
2023/10/20 05:24:04;;;;;;;5.68;3.90;;;7.90;99.90;;;;;;5010227;28;20041;-76
2023/10/20 05:26:31;;;;;;;5.18;3.63;;;7.90;99.90;;;;;;5004903;28;20054;-77
2023/10/20 05:28:58;;;;;;;8.43;3.95;;;7.90;99.90;;;;;;5014882;28;20038;-77
2023/10/20 05:31:27;;;;;;;4.20;3.60;;;8.00;99.90;;;;;;5039231;28;20033;-77
2023/10/20 05:33:53;;;;;;;5.32;3.20;;;7.90;99.90;;;;;;5023080;28;20053;-78
2023/10/20 05:36:19;;;;;;;5.88;4.03;;;8.00;99.90;;;;;;5022934;28;20064;-78
2023/10/20 05:38:45;;;;;;;5.63;4.00;;;8.00;99.90;;;;;;5021390;28;20045;-78
2023/10/20 05:41:11;;;;;;;4.90;3.75;;;8.00;99.90;;;;;;5014074;28;20519;-78
2023/10/20 05:43:37;;;;;;;7.85;3.85;;;7.90;99.90;;;;;;5003449;28;20518;-79
2023/10/20 05:46:03;;;;;;;5.28;4.32;;;8.00;99.90;;;;;;5016343;28;20095;-79
2023/10/20 05:48:28;;;;;;;8.07;3.63;;;7.90;99.90;;;;;;5022413;28;20041;-80
2023/10/20 05:50:58;;;;;;;7.75;3.78;;;7.90;99.90;;;;;;5005890;28;20069;-78
2023/10/20 05:53:26;;;;;;;9.55;4.38;;;7.90;99.90;;;;;;5020245;28;20154;-77
2023/10/20 05:55:52;;;;;;;5.55;2.92;;;8.00;99.90;;;;;;5009170;28;20076;-80
2023/10/20 05:58:19;;;;;;;8.00;3.97;;;7.90;99.90;;;;;;5016869;28;20432;-77
2023/10/20 06:00:44;;;;;;;5.50;2.80;;;8.00;99.90;;;;;;5021954;28;20045;-78
2023/10/20 06:03:11;;;;;;;3.78;2.60;;;8.00;99.90;;;;;;5021290;28;20099;-78
2023/10/20 06:05:37;;;;;;;5.03;2.63;;;8.00;99.90;;;;;;5021277;28;20056;-78
2023/10/20 06:08:03;;;;;;;5.97;2.95;;;8.00;99.90;;;;;;5035768;28;20060;-77
2023/10/20 06:10:29;;;;;;;4.65;4.05;;;8.00;99.90;;;;;;5021833;28;20092;-78
2023/10/20 06:12:55;;;;;;;4.25;3.17;;;8.00;99.90;;;;;;5004423;28;20472;-77
2023/10/20 06:15:21;;;;;;;6.32;4.15;;;8.00;99.90;;;;;;5032321;28;20084;-78
2023/10/20 06:17:49;;;;;;;4.47;3.53;;;8.00;99.90;;;;;;5029383;28;20116;-78
2023/10/20 06:20:15;;;;;;;4.60;2.92;;;8.00;99.90;;;;;;5021020;28;20072;-78
2023/10/20 06:22:42;;;;;;;5.45;2.25;;;8.00;99.90;;;;;;5004539;28;20045;-78
2023/10/20 06:25:14;;;;;;;3.90;3.53;;;8.00;99.90;;;;;;5029334;28;20101;-80
2023/10/20 06:27:40;;;;;;;;;;;8.00;99.90;;;;;;5020288;28;20099;-79
2023/10/20 06:30:11;;;;;;;2.55;2.35;;;8.00;99.90;;;;;;5022291;28;19921;-79
2023/10/20 06:32:44;;;;;;;3.50;2.80;;;8.00;99.90;;;;;;5009925;28;20042;-79
2023/10/20 06:35:12;;;;;;;;;;;8.00;99.90;;;;;;5038372;28;20083;-79
2023/10/20 06:37:47;;;;;;;3.38;2.53;;;8.00;99.90;;;;;;5037108;28;19925;-79
2023/10/20 06:40:16;;;;;;;3.70;2.58;;;8.00;99.90;;;;;;5019870;28;20041;-79
2023/10/20 06:42:43;;;;;;;4.55;2.30;;;8.00;99.90;;;;;;5022084;28;20056;-79
2023/10/20 06:45:10;;;;;;;4.95;2.60;;;8.00;99.90;;;;;;5020271;28;20046;-77
2023/10/20 06:47:36;;;;;;;7.22;2.25;;;8.00;99.90;;;;;;5020426;28;20435;-78
2023/10/20 06:50:01;;;;;;;5.28;2.70;;;8.00;99.90;;;;;;5020517;28;20052;-78
2023/10/20 06:52:27;;;;;;;4.72;2.53;;;8.10;99.90;;;;;;5036525;28;20045;-77
2023/10/20 06:54:56;;;;;;;4.60;2.72;;;8.00;99.90;;;;;;5039748;28;20465;-77
2023/10/20 06:57:23;;;;;;;3.97;1.92;;;8.00;99.90;;;;;;5019561;28;20048;-78
2023/10/20 06:59:51;;;;;;;2.20;2.00;;;8.10;99.90;;;;;;5013689;28;20049;-78
2023/10/20 07:02:17;;;;;;;4.30;1.83;;;8.10;99.90;;;;;;5042256;28;20053;-79
2023/10/20 07:04:43;;;;;;;4.72;2.15;;;8.00;99.90;;;;;;5024482;28;20124;-78
2023/10/20 07:07:17;;;;;;;6.70;2.47;;;8.00;99.90;;;;;;5024298;28;20495;-78
2023/10/20 07:09:44;;;;;;;2.92;1.85;;;8.10;99.90;;;;;;5006256;28;20495;-79
2023/10/20 07:12:10;;;;;;;2.35;1.77;;;8.10;99.90;;;;;;5030098;28;20152;-79
2023/10/20 07:14:38;;;;;;;1.23;1.13;;;8.10;99.90;;;;;;5031425;28;20072;-78
2023/10/20 07:17:06;;;;;;;1.80;1.42;;;8.00;99.90;;;;;;5033037;28;20122;-79
2023/10/20 07:19:33;;;;;;;1.98;1.20;;;8.00;99.90;;;;;;5041677;28;20061;-78
2023/10/20 07:21:59;;;;;;;5.63;1.52;;;8.10;99.90;;;;;;5040760;28;20075;-80
2023/10/20 07:24:26;;;;;;;1.55;1.27;;;8.00;99.90;;;;;;5040617;28;20045;-80
2023/10/20 07:26:52;;;;;;;1.42;1.27;;;8.10;99.90;;;;;;5044294;28;20041;-79
2023/10/20 07:29:18;;;;;;;5.07;1.13;;;8.00;99.90;;;;;;4998548;28;20056;-79
2023/10/20 07:31:45;;;;;;;3.65;1.35;;;8.00;99.90;;;;;;5026471;28;20045;-78
2023/10/20 07:34:11;;;;;;;3.38;2.13;;;8.00;99.90;;;;;;5007912;28;20057;-79
2023/10/20 07:36:37;;;;;;;2.70;1.67;;;8.00;99.90;;;;;;5030073;28;20041;-78
2023/10/20 07:39:03;;;;;;;2.03;0.90;;;8.00;99.90;;;;;;5045103;28;20106;-78
2023/10/20 07:41:29;;;;;;;4.68;2.28;;;8.00;99.90;;;;;;5044042;28;20495;-77
2023/10/20 07:43:56;;;;;;;1.92;1.10;;;7.90;99.90;;;;;;5043972;28;20075;-78
2023/10/20 07:46:22;;;;;;;2.38;1.58;;;7.90;99.90;;;;;;5025375;28;20049;-78
2023/10/20 07:48:47;;;;;;;0.95;0.95;;;7.90;99.90;;;;;;5025089;28;20045;-79
2023/10/20 07:51:13;;;;;;;1.52;1.15;;;7.90;99.90;;;;;;5023598;28;20500;-79
2023/10/20 07:53:39;;;;;;;4.70;1.83;;;7.90;99.90;;;;;;5024856;28;20060;-78
2023/10/20 07:56:04;;;;;;;1.52;1.42;;;7.90;99.90;;;;;;5024975;28;20045;-78
2023/10/20 07:58:32;;;;;;;3.03;1.67;;;7.90;99.90;;;;;;5024688;28;20492;-78
2023/10/20 08:00:57;;;;;;;2.97;1.27;;;7.90;99.90;;;;;;5025025;28;20495;-77
2023/10/20 08:03:23;;;;;;;3.17;1.55;;;7.90;99.90;;;;;;5024716;28;20037;-79
2023/10/20 08:05:49;;;;;;;3.45;1.45;;;7.80;99.90;;;;;;5023672;28;20061;-77
2023/10/20 08:08:14;;;;;;;2.70;1.25;;;7.80;99.90;;;;;;5023154;28;20041;-77
2023/10/20 08:10:40;;;;;;;1.17;0.93;;;7.80;99.90;;;;;;5022518;28;20045;-78
2023/10/20 08:13:05;;;;;;;0.95;0.77;;;7.80;99.90;;;;;;5023185;28;20571;-76
2023/10/20 08:15:36;;;;;;;2.30;0.63;;;7.80;99.90;;;;;;5018768;28;20128;-77
2023/10/20 08:18:01;;;;;;;2.47;1.55;;;7.80;99.90;;;;;;5031837;28;20041;-77
2023/10/20 08:20:27;;;;;;;1.02;0.73;;;7.70;99.90;;;;;;5022441;28;20052;-77
2023/10/20 08:22:53;;;;;;;1.40;0.98;;;7.70;99.90;;;;;;5023377;28;20038;-77
2023/10/20 08:25:18;;;;;;;0.73;0.73;;;7.70;99.90;;;;;;5006743;28;20037;-77
2023/10/20 08:27:47;;;;;;;2.20;0.98;;;7.70;99.90;;;;;;5022053;28;20041;-77
2023/10/20 08:30:13;;;;;;;1.58;1.27;;;7.70;99.90;;;;;;5020697;28;20257;-77
2023/10/20 08:32:39;;;;;;;1.48;1.23;;;7.70;99.90;;;;;;5023421;28;20059;-77
2023/10/20 08:35:08;;;;;;;3.78;1.85;;;7.70;99.90;;;;;;5002755;28;20487;-77
2023/10/20 08:37:37;;;;;;;2.88;0.98;;;7.70;99.90;;;;;;5014089;28;20061;-76
2023/10/20 08:40:10;;;;;;;2.45;0.80;;;7.70;99.90;;;;;;5023508;28;20123;-76
2023/10/20 08:42:37;;;;;;;1.85;1.05;;;7.60;99.90;;;;;;5021333;28;20164;-76
2023/10/20 08:45:03;;;;;;;0.93;0.90;;;7.70;99.90;;;;;;4999402;28;20096;-76
2023/10/20 08:47:29;;;;;;;1.42;1.08;;;7.60;99.90;;;;;;5021759;28;20561;-77
2023/10/20 08:49:55;;;;;;;1.42;1.30;;;7.60;99.90;;;;;;5023983;28;20026;-76
2023/10/20 08:52:22;;;;;;;1.50;0.52;;;7.60;99.90;;;;;;5021591;28;20049;-77
2023/10/20 08:54:48;;;;;;;0.80;0.60;;;7.60;99.90;;;;;;5022657;28;20084;-77
2023/10/20 08:57:14;;;;;;;1.70;1.13;;;7.60;99.90;;;;;;5021267;28;20072;-77
2023/10/20 08:59:52;;;;;;;1.65;1.10;;;7.60;99.90;;;;;;5003822;28;20072;-78
2023/10/20 09:02:18;;;;;;;2.80;1.38;;;7.60;99.90;;;;;;5021334;28;20314;-77
2023/10/20 09:04:48;;;;;;;0.55;0.55;;;7.60;99.90;;;;;;5021351;28;20060;-76
2023/10/20 09:07:14;;;;;;;1.27;0.80;;;7.60;99.90;;;;;;5021098;28;20586;-76
2023/10/20 09:09:39;;;;;;;0.65;0.65;;;7.60;99.90;;;;;;5022151;28;20050;-78
2023/10/20 09:12:06;;;;;;;0.90;0.52;;;7.60;99.90;;;;;;5021918;28;20045;-76
2023/10/20 09:14:31;;;;;;;0.68;0.60;;;7.60;99.90;;;;;;5021408;28;20041;-76
2023/10/20 09:16:59;;;;;;;1.15;0.80;;;7.60;99.90;;;;;;5022785;28;20034;-76
2023/10/20 09:19:25;;;;;;;0.70;0.70;;;7.60;99.90;;;;;;5022511;28;20037;-76
2023/10/20 09:21:52;;;;;;;2.30;0.65;;;7.60;99.90;;;;;;5021880;28;20052;-77
2023/10/20 09:24:18;;;;;;;1.58;0.82;;;7.60;99.90;;;;;;5021143;28;20049;-76
2023/10/20 09:26:44;;;;;;;0.57;0.45;;;7.60;99.90;;;;;;5004764;28;20096;-76
2023/10/20 09:29:10;;;;;;;0.57;0.30;;;7.60;99.90;;;;;;5020765;28;20053;-77
2023/10/20 09:31:39;;;;;;;1.30;0.47;;;7.50;99.90;;;;;;5021257;28;20045;-76
2023/10/20 09:34:06;;;;;;;0.77;0.77;;;7.50;99.90;;;;;;5021679;28;20395;-75
2023/10/20 09:36:33;;;;;;;1.35;0.85;;;7.50;99.90;;;;;;5021372;28;20060;-77
2023/10/20 09:38:59;;;;;;;0.43;0.43;;;7.50;99.90;;;;;;5022598;28;20095;-75
2023/10/20 09:41:29;;;;;;;0.70;0.70;;;7.50;99.90;;;;;;5021539;28;20088;-76
2023/10/20 09:44:06;;;;;;;0.82;0.82;;;7.50;99.90;;;;;;5020254;28;20137;-77
2023/10/20 09:46:46;;;;;;;1.65;0.43;;;7.50;99.90;;;;;;5021241;28;20037;-75
2023/10/20 09:49:20;;;;;;;0.85;0.70;;;7.50;99.90;;;;;;5020335;28;20046;-75
2023/10/20 09:51:48;;;;;;;0.80;0.73;;;7.50;99.90;;;;;;5021950;28;20135;-75
2023/10/20 09:54:16;;;;;;;1.10;0.93;;;7.50;99.90;;;;;;5021583;28;20073;-78
2023/10/20 09:56:44;;;;;;;0.43;0.43;;;7.50;99.90;;;;;;5020858;28;20057;-76
2023/10/20 09:59:20;;;;;;;0.65;0.50;;;7.50;99.90;;;;;;5015411;28;20040;-77
2023/10/20 10:01:46;;;;;;;0.43;0.43;;;7.50;99.90;;;;;;5020529;28;20038;-75
2023/10/20 10:04:13;;;;;;;3.30;0.70;;;7.50;99.90;;;;;;5021832;28;20038;-75
2023/10/20 10:06:38;;;;;;;0.85;0.50;;;7.50;99.90;;;;;;5020167;28;20144;-75
2023/10/20 10:09:05;;;;;;;1.75;0.68;;;7.50;99.90;;;;;;5022167;28;20124;-75
2023/10/20 10:11:42;;;;;;;0.43;0.30;;;7.50;99.90;;;;;;5019830;28;20044;-75
2023/10/20 10:14:16;;;;;;;0.40;0.40;;;7.50;99.90;;;;;;5017216;28;20061;-75
2023/10/20 10:16:56;;;;;;;1.48;0.45;;;7.50;99.90;;;;;;5015503;28;20053;-75
2023/10/20 10:19:26;;;;;;;0.60;0.60;;;7.40;99.90;;;;;;5011464;28;20041;-75
2023/10/20 10:21:53;;;;;;;0.70;0.47;;;7.50;99.90;;;;;;5019467;28;20041;-75
2023/10/20 10:24:21;;;;;;;0.85;0.85;;;7.40;99.90;;;;;;4999802;28;20046;-76
2023/10/20 10:26:56;;;;;;;1.35;0.82;;;7.40;99.90;;;;;;5003224;28;20049;-78
2023/10/20 10:30:05;;;;;;;0.43;0.43;;;7.40;99.90;;;;;;5005570;28;20121;-75
2023/10/20 10:32:32;;;;;;;1.38;0.35;;;7.40;99.90;;;;;;5017787;28;20602;-74
2023/10/20 10:34:58;;;;;;;0.52;0.40;;;7.40;99.90;;;;;;5020009;28;20057;-74
2023/10/20 10:37:35;;;;;;;0.40;0.40;;;7.40;99.90;;;;;;5020690;28;20033;-74
2023/10/20 10:40:07;;;;;;;0.30;0.30;;;7.30;99.90;;;;;;5019384;28;20041;-73
2023/10/20 10:42:38;;;;;;;0.47;0.47;;;7.30;99.90;;;;;;5000633;28;20072;-74
2023/10/20 10:45:23;;;;;;;0.68;0.30;;;7.30;99.90;;;;;;5017424;28;20140;-74
2023/10/20 10:47:49;;;;;;;0.20;0.20;;;7.30;99.90;;;;;;5015585;28;20060;-75
2023/10/20 10:50:16;;;;;;;0.32;0.30;;;7.30;99.90;;;;;;5021407;28;20040;-75
2023/10/20 10:52:43;;;;;;;0.65;0.65;;;7.30;99.90;;;;;;5020839;28;20103;-75
2023/10/20 10:55:13;;;;;;;0.30;0.30;;;7.30;99.90;;;;;;5021932;28;20081;-75
2023/10/20 10:57:40;;;;;;;1.67;0.30;;;7.30;99.90;;;;;;5021735;28;20045;-75
2023/10/20 11:00:07;;;;;;;2.45;0.45;;;7.30;99.90;;;;;;5019245;28;20041;-74
2023/10/20 11:02:32;;;;;;;0.30;0.30;;;7.30;99.90;;;;;;5020457;28;20069;-74
2023/10/20 11:05:00;;;;;;;0.70;0.70;;;7.20;99.90;;;;;;5032145;28;20083;-74
2023/10/20 11:07:25;;;;;;;0.20;0.20;;;7.20;99.90;;;;;;5028478;28;20054;-73
2023/10/20 11:09:51;;;;;;;0.55;0.50;;;7.20;99.90;;;;;;5018418;28;20043;-72
2023/10/20 11:12:17;;;;;;;0.20;0.20;;;7.10;99.90;;;;;;5013803;28;20091;-72
2023/10/20 11:14:42;;;;;;;0.20;0.20;;;7.10;99.90;;;;;;5004044;28;20530;-73
2023/10/20 11:17:08;;;;;;;0.52;0.38;;;7.10;99.90;;;;;;5017221;28;20049;-73
2023/10/20 11:19:33;;;;;;;0.10;0.10;;;7.10;99.90;;;;;;5013695;28;20077;-72
2023/10/20 11:21:59;;;;;;;0.20;0.20;;;7.10;99.90;;;;;;5019082;28;20067;-72
2023/10/20 11:24:31;;;;;;;0.47;0.32;;;7.10;99.90;;;;;;5020165;28;20472;-73
2023/10/20 11:26:58;;;;;;;0.50;0.50;;;7.00;99.90;;;;;;5013621;28;20080;-74
2023/10/20 11:29:32;;;;;;;3.85;0.57;;;7.10;99.90;;;;;;5019897;28;20033;-73
2023/10/20 11:32:00;;;;;;;3.40;0.25;;;7.00;99.90;;;;;;5015754;28;20037;-73
2023/10/20 11:34:26;;;;;;;1.70;0.57;;;7.10;99.90;;;;;;5018894;28;20057;-72
2023/10/20 11:36:52;;;;;;;0.40;0.40;;;7.00;99.90;;;;;;5017327;28;20416;-72
2023/10/20 11:39:24;;;;;;;1.75;0.30;;;7.00;99.90;;;;;;5009101;28;20041;-73
2023/10/20 11:41:50;;;;;;;0.65;0.65;;;7.00;99.90;;;;;;5019214;28;20346;-74
2023/10/20 11:44:16;;;;;;;0.10;0.10;;;7.00;99.90;;;;;;5019257;28;20069;-73
2023/10/20 11:46:43;;;;;;;0.70;0.50;;;7.00;99.90;;;;;;5017867;28;20073;-74
2023/10/20 11:49:10;;;;;;;0.20;0.20;;;7.00;99.90;;;;;;5020756;28;20471;-73
2023/10/20 11:51:37;;;;;;;0.32;0.20;;;7.00;99.90;;;;;;5015450;28;20038;-74
2023/10/20 11:54:03;;;;;;;0.30;0.30;;;7.00;99.90;;;;;;5018310;28;20451;-74
2023/10/20 11:56:28;;;;;;;0.00;0.00;;;7.00;99.90;;;;;;5016256;28;20038;-74
2023/10/20 11:58:54;;;;;;;0.20;0.20;;;7.00;99.90;;;;;;5005337;28;20038;-74
2023/10/20 12:01:19;;;;;;;0.10;0.10;;;7.00;99.90;;;;;;5013051;28;20041;-75
2023/10/20 12:03:45;;;;;;;0.30;0.30;;;7.00;99.90;;;;;;5018157;28;20045;-75
2023/10/20 12:06:11;;;;;;;0.10;0.10;;;7.00;99.90;;;;;;5020092;28;20511;-76
2023/10/20 12:08:37;;;;;;;0.20;0.20;;;7.10;99.90;;;;;;5016135;28;20038;-75
2023/10/20 12:11:02;;;;;;;0.40;0.30;;;7.00;99.90;;;;;;5016742;28;20033;-75
2023/10/20 12:13:28;;;;;;;0.90;0.38;;;7.00;99.90;;;;;;5020576;28;20086;-75
2023/10/20 12:15:54;;;;;;;0.47;0.43;;;7.00;99.90;;;;;;5013170;28;20059;-82
2023/10/20 12:18:20;;;;;;;0.00;0.00;;;7.00;99.90;;;;;;5023563;28;20033;-74
2023/10/20 12:20:47;;;;;;;0.70;0.63;;;7.00;99.90;;;;;;5021049;28;20041;-76
2023/10/20 12:23:13;;;;;;;0.00;0.00;;;7.00;99.90;;;;;;5023427;28;20042;-76
2023/10/20 12:25:38;;;;;;;0.32;0.20;;;7.00;99.90;;;;;;5023234;28;20598;-77
2023/10/20 12:28:05;;;;;;;0.20;0.20;;;7.00;99.90;;;;;;5022047;28;20045;-77
2023/10/20 12:30:32;;;;;;;1.38;0.28;;;7.00;99.90;;;;;;5021796;28;20049;-76
2023/10/20 12:32:59;;;;;;;0.47;0.47;;;7.00;99.90;;;;;;5022779;28;20069;-75
2023/10/20 12:35:25;;;;;;;0.22;0.22;;;7.00;99.90;;;;;;5021333;28;20049;-77
2023/10/20 12:37:50;;;;;;;0.17;0.17;;;7.00;99.90;;;;;;5022218;28;20045;-76
2023/10/20 12:40:16;;;;;;;0.20;0.20;;;7.00;99.90;;;;;;5001710;28;20400;-76
2023/10/20 12:42:43;;;;;;;0.30;0.30;;;7.00;99.90;;;;;;5021005;28;20045;-76
2023/10/20 12:45:09;;;;;;;0.10;0.10;;;7.00;99.90;;;;;;5021760;28;20057;-76
2023/10/20 12:47:38;;;;;;;0.17;0.17;;;7.00;99.90;;;;;;5021906;28;20037;-76
2023/10/20 12:50:06;;;;;;;0.10;0.10;;;7.00;99.90;;;;;;5022877;28;20080;-75
2023/10/20 12:52:32;;;;;;;0.40;0.20;;;7.00;99.90;;;;;;5021963;28;20081;-75
2023/10/20 12:54:57;;;;;;;0.17;0.10;;;7.00;99.90;;;;;;5005033;28;20451;-75
2023/10/20 12:57:23;;;;;;;0.20;0.10;;;7.00;99.90;;;;;;5020786;28;20404;-75
2023/10/20 12:59:48;;;;;;;0.52;0.52;;;7.00;99.90;;;;;;5022321;28;20049;-76
2023/10/20 13:02:14;;;;;;;0.20;0.20;;;7.00;99.90;;;;;;5023134;28;20420;-77
2023/10/20 13:04:39;;;;;;;1.17;0.50;;;7.00;99.90;;;;;;5021690;28;20095;-77
2023/10/20 13:07:06;;;;;;;0.20;0.20;;;7.00;99.90;;;;;;5022580;28;20049;-77
2023/10/20 13:09:31;;;;;;;0.25;0.25;;;7.00;99.90;;;;;;5020784;28;20107;-77
2023/10/20 13:11:57;;;;;;;0.10;0.10;;;7.00;99.90;;;;;;5022681;28;20476;-75
2023/10/20 13:14:23;;;;;;;0.90;0.30;;;7.00;99.90;;;;;;5021086;28;20081;-76
2023/10/20 13:16:49;;;;;;;0.43;0.10;;;7.00;99.90;;;;;;5023911;28;20053;-77
2023/10/20 13:19:15;;;;;;;0.25;0.20;;;7.00;99.90;;;;;;5024990;28;20037;-76